sensor_id;sensor_type;location;lat;lon;timestamp;temperature;humidity
16273;DHT22;8244;50.044;9.006;2022-10-16T00:00:42;15.20;99.90
16273;DHT22;8244;50.044;9.006;2022-10-16T00:05:44;15.20;99.90
16273;DHT22;8244;50.044;9.006;2022-10-16T00:10:48;15.20;99.90
16273;DHT22;8244;50.044;9.006;2022-10-16T00:15:49;15.20;99.90
16273;DHT22;8244;50.044;9.006;2022-10-16T00:20:51;15.20;99.90
16273;DHT22;8244;50.044;9.006;2022-10-16T00:25:58;15.20;99.90
16273;DHT22;8244;50.044;9.006;2022-10-16T00:31:03;15.20;99.90
16273;DHT22;8244;50.044;9.006;2022-10-16T00:36:07;15.10;99.90
16273;DHT22;8244;50.044;9.006;2022-10-16T00:41:17;15.20;99.90
16273;DHT22;8244;50.044;9.006;2022-10-16T00:46:21;15.20;99.90
16273;DHT22;8244;50.044;9.006;2022-10-16T00:51:27;15.10;99.90
16273;DHT22;8244;50.044;9.006;2022-10-16T00:56:32;15.20;99.90
16273;DHT22;8244;50.044;9.006;2022-10-16T01:01:34;15.20;99.90
16273;DHT22;8244;50.044;9.006;2022-10-16T01:06:40;15.20;99.90
16273;DHT22;8244;50.044;9.006;2022-10-16T01:11:54;15.20;99.90
16273;DHT22;8244;50.044;9.006;2022-10-16T01:17:03;15.20;99.90
16273;DHT22;8244;50.044;9.006;2022-10-16T01:22:06;15.20;99.90
16273;DHT22;8244;50.044;9.006;2022-10-16T01:27:13;15.20;99.90
16273;DHT22;8244;50.044;9.006;2022-10-16T01:32:20;15.20;99.90
16273;DHT22;8244;50.044;9.006;2022-10-16T01:37:29;15.20;99.90
16273;DHT22;8244;50.044;9.006;2022-10-16T01:42:37;15.30;99.90
16273;DHT22;8244;50.044;9.006;2022-10-16T01:47:42;15.30;99.90
16273;DHT22;8244;50.044;9.006;2022-10-16T01:52:46;15.30;99.90
16273;DHT22;8244;50.044;9.006;2022-10-16T01:57:51;15.30;99.90
16273;DHT22;8244;50.044;9.006;2022-10-16T02:02:55;15.40;99.90
16273;DHT22;8244;50.044;9.006;2022-10-16T02:07:58;15.30;99.90
16273;DHT22;8244;50.044;9.006;2022-10-16T02:13:05;15.40;99.90
16273;DHT22;8244;50.044;9.006;2022-10-16T02:18:08;15.40;99.90
16273;DHT22;8244;50.044;9.006;2022-10-16T02:23:14;15.40;99.90
16273;DHT22;8244;50.044;9.006;2022-10-16T02:28:26;15.40;99.90
16273;DHT22;8244;50.044;9.006;2022-10-16T02:33:29;15.40;99.90
16273;DHT22;8244;50.044;9.006;2022-10-16T02:38:32;15.40;99.90
16273;DHT22;8244;50.044;9.006;2022-10-16T02:43:35;15.40;99.90
16273;DHT22;8244;50.044;9.006;2022-10-16T02:48:37;15.40;99.90
16273;DHT22;8244;50.044;9.006;2022-10-16T02:53:39;15.30;99.90
16273;DHT22;8244;50.044;9.006;2022-10-16T02:58:42;15.30;99.90
16273;DHT22;8244;50.044;9.006;2022-10-16T03:03:44;15.30;99.90
16273;DHT22;8244;50.044;9.006;2022-10-16T03:08:48;15.30;99.90
16273;DHT22;8244;50.044;9.006;2022-10-16T03:13:51;15.30;99.90
16273;DHT22;8244;50.044;9.006;2022-10-16T03:18:52;15.30;99.90
16273;DHT22;8244;50.044;9.006;2022-10-16T03:23:54;15.30;99.90
16273;DHT22;8244;50.044;9.006;2022-10-16T03:28:57;15.30;99.90
16273;DHT22;8244;50.044;9.006;2022-10-16T03:33:58;15.30;99.90
16273;DHT22;8244;50.044;9.006;2022-10-16T03:39:00;15.40;99.90
16273;DHT22;8244;50.044;9.006;2022-10-16T03:44:03;15.30;99.90
16273;DHT22;8244;50.044;9.006;2022-10-16T03:49:05;15.40;99.90
16273;DHT22;8244;50.044;9.006;2022-10-16T03:54:07;15.40;99.90
16273;DHT22;8244;50.044;9.006;2022-10-16T03:59:10;15.40;99.90
16273;DHT22;8244;50.044;9.006;2022-10-16T04:04:11;15.40;99.90
16273;DHT22;8244;50.044;9.006;2022-10-16T04:09:13;15.40;99.90
16273;DHT22;8244;50.044;9.006;2022-10-16T04:14:16;15.30;99.90
16273;DHT22;8244;50.044;9.006;2022-10-16T04:19:18;15.30;99.90
16273;DHT22;8244;50.044;9.006;2022-10-16T04:24:20;15.30;99.90
16273;DHT22;8244;50.044;9.006;2022-10-16T04:29:23;15.30;99.90
16273;DHT22;8244;50.044;9.006;2022-10-16T04:34:24;15.40;99.90
16273;DHT22;8244;50.044;9.006;2022-10-16T04:39:26;15.30;99.90
16273;DHT22;8244;50.044;9.006;2022-10-16T04:44:29;15.40;99.90
16273;DHT22;8244;50.044;9.006;2022-10-16T04:49:31;15.40;99.90
16273;DHT22;8244;50.044;9.006;2022-10-16T04:54:32;15.40;99.90
16273;DHT22;8244;50.044;9.006;2022-10-16T04:59:35;15.40;99.90
16273;DHT22;8244;50.044;9.006;2022-10-16T05:04:37;15.40;99.90
16273;DHT22;8244;50.044;9.006;2022-10-16T05:09:39;15.40;99.90
16273;DHT22;8244;50.044;9.006;2022-10-16T05:14:42;15.40;99.90
16273;DHT22;8244;50.044;9.006;2022-10-16T05:19:43;15.40;99.90
16273;DHT22;8244;50.044;9.006;2022-10-16T05:24:45;15.40;99.90
16273;DHT22;8244;50.044;9.006;2022-10-16T05:29:48;15.40;99.90
16273;DHT22;8244;50.044;9.006;2022-10-16T05:34:50;15.40;99.90
16273;DHT22;8244;50.044;9.006;2022-10-16T05:39:52;15.40;99.90
16273;DHT22;8244;50.044;9.006;2022-10-16T05:44:55;15.40;99.90
16273;DHT22;8244;50.044;9.006;2022-10-16T05:49:57;15.40;99.90
16273;DHT22;8244;50.044;9.006;2022-10-16T05:54:58;15.40;99.90
16273;DHT22;8244;50.044;9.006;2022-10-16T06:00:02;15.50;99.90
16273;DHT22;8244;50.044;9.006;2022-10-16T06:05:05;15.50;99.90
16273;DHT22;8244;50.044;9.006;2022-10-16T06:10:08;15.50;99.90
16273;DHT22;8244;50.044;9.006;2022-10-16T06:15:11;15.50;99.90
16273;DHT22;8244;50.044;9.006;2022-10-16T06:20:13;15.50;99.90
16273;DHT22;8244;50.044;9.006;2022-10-16T06:25:14;15.50;99.90
16273;DHT22;8244;50.044;9.006;2022-10-16T06:30:17;15.60;99.90
16273;DHT22;8244;50.044;9.006;2022-10-16T06:35:19;15.60;99.90
16273;DHT22;8244;50.044;9.006;2022-10-16T06:40:21;15.60;99.90
16273;DHT22;8244;50.044;9.006;2022-10-16T06:45:24;15.60;99.90
16273;DHT22;8244;50.044;9.006;2022-10-16T06:50:26;15.70;99.90
16273;DHT22;8244;50.044;9.006;2022-10-16T06:55:27;15.80;99.90
16273;DHT22;8244;50.044;9.006;2022-10-16T07:00:30;15.80;99.90
16273;DHT22;8244;50.044;9.006;2022-10-16T07:05:37;15.80;99.90
16273;DHT22;8244;50.044;9.006;2022-10-16T07:10:39;15.90;99.90
16273;DHT22;8244;50.044;9.006;2022-10-16T07:15:42;16.00;99.90
16273;DHT22;8244;50.044;9.006;2022-10-16T07:20:43;16.00;99.90
16273;DHT22;8244;50.044;9.006;2022-10-16T07:25:45;16.10;99.90
16273;DHT22;8244;50.044;9.006;2022-10-16T07:30:48;16.20;99.90
16273;DHT22;8244;50.044;9.006;2022-10-16T07:35:51;16.30;99.90
16273;DHT22;8244;50.044;9.006;2022-10-16T07:40:57;16.40;99.90
16273;DHT22;8244;50.044;9.006;2022-10-16T07:46:01;16.50;99.90
16273;DHT22;8244;50.044;9.006;2022-10-16T07:51:05;16.50;99.90
16273;DHT22;8244;50.044;9.006;2022-10-16T07:56:07;16.60;99.90
16273;DHT22;8244;50.044;9.006;2022-10-16T08:01:12;16.60;99.90
16273;DHT22;8244;50.044;9.006;2022-10-16T08:06:14;16.70;99.90
16273;DHT22;8244;50.044;9.006;2022-10-16T08:11:16;16.70;99.90
16273;DHT22;8244;50.044;9.006;2022-10-16T08:16:19;16.70;99.90
16273;DHT22;8244;50.044;9.006;2022-10-16T08:21:22;16.80;99.90
16273;DHT22;8244;50.044;9.006;2022-10-16T08:26:25;16.80;99.90
16273;DHT22;8244;50.044;9.006;2022-10-16T08:31:28;16.90;99.90
16273;DHT22;8244;50.044;9.006;2022-10-16T08:36:30;17.00;99.90
16273;DHT22;8244;50.044;9.006;2022-10-16T08:41:56;17.00;99.90
16273;DHT22;8244;50.044;9.006;2022-10-16T08:47:11;17.00;99.90
16273;DHT22;8244;50.044;9.006;2022-10-16T08:52:14;17.10;99.90
16273;DHT22;8244;50.044;9.006;2022-10-16T08:57:19;17.20;99.90
16273;DHT22;8244;50.044;9.006;2022-10-16T09:02:29;17.20;99.90
16273;DHT22;8244;50.044;9.006;2022-10-16T09:07:38;17.20;99.90
16273;DHT22;8244;50.044;9.006;2022-10-16T09:12:51;17.30;99.90
16273;DHT22;8244;50.044;9.006;2022-10-16T09:18:02;17.30;99.90
16273;DHT22;8244;50.044;9.006;2022-10-16T09:23:16;17.40;99.90
16273;DHT22;8244;50.044;9.006;2022-10-16T09:28:18;17.60;99.90
16273;DHT22;8244;50.044;9.006;2022-10-16T09:33:24;17.70;99.90
16273;DHT22;8244;50.044;9.006;2022-10-16T09:38:29;17.80;99.90
16273;DHT22;8244;50.044;9.006;2022-10-16T09:43:35;17.90;99.90
16273;DHT22;8244;50.044;9.006;2022-10-16T09:48:47;18.00;99.90
16273;DHT22;8244;50.044;9.006;2022-10-16T09:53:53;18.10;99.90
16273;DHT22;8244;50.044;9.006;2022-10-16T09:58:58;18.30;99.90
16273;DHT22;8244;50.044;9.006;2022-10-16T10:04:01;18.50;99.90
16273;DHT22;8244;50.044;9.006;2022-10-16T10:09:06;18.70;99.90
16273;DHT22;8244;50.044;9.006;2022-10-16T10:14:25;18.90;99.90
16273;DHT22;8244;50.044;9.006;2022-10-16T10:19:29;19.10;99.90
16273;DHT22;8244;50.044;9.006;2022-10-16T10:24:31;19.30;99.90
16273;DHT22;8244;50.044;9.006;2022-10-16T10:29:45;19.60;99.90
16273;DHT22;8244;50.044;9.006;2022-10-16T10:35:01;19.90;99.90
16273;DHT22;8244;50.044;9.006;2022-10-16T10:45:38;20.60;99.90
16273;DHT22;8244;50.044;9.006;2022-10-16T10:50:48;20.80;99.90
16273;DHT22;8244;50.044;9.006;2022-10-16T10:55:54;21.00;99.90
16273;DHT22;8244;50.044;9.006;2022-10-16T11:01:06;21.30;99.90
16273;DHT22;8244;50.044;9.006;2022-10-16T11:06:12;21.70;99.90
16273;DHT22;8244;50.044;9.006;2022-10-16T11:11:20;21.90;99.90
16273;DHT22;8244;50.044;9.006;2022-10-16T11:16:28;22.00;99.90
16273;DHT22;8244;50.044;9.006;2022-10-16T11:21:39;22.20;99.90
16273;DHT22;8244;50.044;9.006;2022-10-16T11:26:43;22.20;99.90
16273;DHT22;8244;50.044;9.006;2022-10-16T11:31:50;22.20;99.90
16273;DHT22;8244;50.044;9.006;2022-10-16T11:36:58;22.30;99.90
16273;DHT22;8244;50.044;9.006;2022-10-16T11:42:08;22.40;99.90
16273;DHT22;8244;50.044;9.006;2022-10-16T11:47:19;22.60;99.90
16273;DHT22;8244;50.044;9.006;2022-10-16T11:52:30;22.70;99.90
16273;DHT22;8244;50.044;9.006;2022-10-16T11:57:33;22.80;99.90
16273;DHT22;8244;50.044;9.006;2022-10-16T12:02:48;22.80;99.90
16273;DHT22;8244;50.044;9.006;2022-10-16T12:08:01;22.70;99.90
16273;DHT22;8244;50.044;9.006;2022-10-16T12:13:04;22.80;99.90
16273;DHT22;8244;50.044;9.006;2022-10-16T12:18:20;23.00;99.90
16273;DHT22;8244;50.044;9.006;2022-10-16T12:23:24;23.20;99.90
16273;DHT22;8244;50.044;9.006;2022-10-16T12:28:27;23.30;99.90
16273;DHT22;8244;50.044;9.006;2022-10-16T12:33:31;23.10;99.90
16273;DHT22;8244;50.044;9.006;2022-10-16T12:38:38;22.90;99.90
16273;DHT22;8244;50.044;9.006;2022-10-16T12:43:47;23.30;99.90
16273;DHT22;8244;50.044;9.006;2022-10-16T12:48:49;23.50;99.90
16273;DHT22;8244;50.044;9.006;2022-10-16T12:54:02;23.60;99.90
16273;DHT22;8244;50.044;9.006;2022-10-16T12:59:12;23.60;99.90
16273;DHT22;8244;50.044;9.006;2022-10-16T13:04:26;23.50;99.90
16273;DHT22;8244;50.044;9.006;2022-10-16T13:09:43;23.30;99.90
16273;DHT22;8244;50.044;9.006;2022-10-16T13:15:16;23.10;99.90
16273;DHT22;8244;50.044;9.006;2022-10-16T13:20:24;23.00;99.90
16273;DHT22;8244;50.044;9.006;2022-10-16T13:25:39;22.90;99.90
16273;DHT22;8244;50.044;9.006;2022-10-16T13:30:51;22.80;99.90
16273;DHT22;8244;50.044;9.006;2022-10-16T13:35:54;22.90;99.90
16273;DHT22;8244;50.044;9.006;2022-10-16T13:40:58;23.00;99.90
16273;DHT22;8244;50.044;9.006;2022-10-16T13:46:04;22.90;99.90
16273;DHT22;8244;50.044;9.006;2022-10-16T13:51:12;22.90;99.90
16273;DHT22;8244;50.044;9.006;2022-10-16T13:56:18;22.70;99.90
16273;DHT22;8244;50.044;9.006;2022-10-16T14:01:23;22.70;99.90
16273;DHT22;8244;50.044;9.006;2022-10-16T14:06:26;22.70;99.90
16273;DHT22;8244;50.044;9.006;2022-10-16T14:11:29;22.80;99.90
16273;DHT22;8244;50.044;9.006;2022-10-16T14:16:31;22.80;99.90
16273;DHT22;8244;50.044;9.006;2022-10-16T14:21:34;22.70;99.90
16273;DHT22;8244;50.044;9.006;2022-10-16T14:26:43;22.70;99.90
16273;DHT22;8244;50.044;9.006;2022-10-16T14:31:54;22.60;99.90
16273;DHT22;8244;50.044;9.006;2022-10-16T14:36:58;22.50;99.90
16273;DHT22;8244;50.044;9.006;2022-10-16T14:42:02;22.30;99.90
16273;DHT22;8244;50.044;9.006;2022-10-16T14:47:10;22.20;99.90
16273;DHT22;8244;50.044;9.006;2022-10-16T14:52:14;22.10;99.90
16273;DHT22;8244;50.044;9.006;2022-10-16T14:57:19;22.00;99.90
16273;DHT22;8244;50.044;9.006;2022-10-16T15:02:27;22.00;99.90
16273;DHT22;8244;50.044;9.006;2022-10-16T15:07:29;21.90;99.90
16273;DHT22;8244;50.044;9.006;2022-10-16T15:12:32;21.80;99.90
16273;DHT22;8244;50.044;9.006;2022-10-16T15:17:35;21.70;99.90
16273;DHT22;8244;50.044;9.006;2022-10-16T15:22:36;21.70;99.90
16273;DHT22;8244;50.044;9.006;2022-10-16T15:27:39;21.60;99.90
16273;DHT22;8244;50.044;9.006;2022-10-16T15:32:41;21.50;99.90
16273;DHT22;8244;50.044;9.006;2022-10-16T15:37:43;21.40;99.90
16273;DHT22;8244;50.044;9.006;2022-10-16T15:42:46;21.40;99.90
16273;DHT22;8244;50.044;9.006;2022-10-16T15:47:48;21.30;99.90
16273;DHT22;8244;50.044;9.006;2022-10-16T15:52:50;21.30;99.90
16273;DHT22;8244;50.044;9.006;2022-10-16T15:57:53;21.20;99.90
16273;DHT22;8244;50.044;9.006;2022-10-16T16:02:55;21.10;99.90
16273;DHT22;8244;50.044;9.006;2022-10-16T16:07:57;20.90;99.90
16273;DHT22;8244;50.044;9.006;2022-10-16T16:13:00;20.90;99.90
16273;DHT22;8244;50.044;9.006;2022-10-16T16:18:02;20.70;99.90
16273;DHT22;8244;50.044;9.006;2022-10-16T16:23:06;20.60;99.90
16273;DHT22;8244;50.044;9.006;2022-10-16T16:28:11;20.40;99.90
16273;DHT22;8244;50.044;9.006;2022-10-16T16:33:14;20.20;99.90
16273;DHT22;8244;50.044;9.006;2022-10-16T16:38:16;20.00;99.90
16273;DHT22;8244;50.044;9.006;2022-10-16T16:43:19;19.80;99.90
16273;DHT22;8244;50.044;9.006;2022-10-16T16:48:23;19.70;99.90
16273;DHT22;8244;50.044;9.006;2022-10-16T16:53:25;19.60;99.90
16273;DHT22;8244;50.044;9.006;2022-10-16T16:58:28;19.40;99.90
16273;DHT22;8244;50.044;9.006;2022-10-16T17:03:31;19.30;99.90
16273;DHT22;8244;50.044;9.006;2022-10-16T17:08:33;19.20;99.90
16273;DHT22;8244;50.044;9.006;2022-10-16T17:13:36;19.00;99.90
16273;DHT22;8244;50.044;9.006;2022-10-16T17:18:38;18.90;99.90
16273;DHT22;8244;50.044;9.006;2022-10-16T17:23:41;18.80;99.90
16273;DHT22;8244;50.044;9.006;2022-10-16T17:28:44;18.70;99.90
16273;DHT22;8244;50.044;9.006;2022-10-16T17:33:46;18.60;99.90
16273;DHT22;8244;50.044;9.006;2022-10-16T17:38:48;18.50;99.90
16273;DHT22;8244;50.044;9.006;2022-10-16T17:43:51;18.40;99.90
16273;DHT22;8244;50.044;9.006;2022-10-16T17:48:54;18.30;99.90
16273;DHT22;8244;50.044;9.006;2022-10-16T17:53:57;18.20;99.90
16273;DHT22;8244;50.044;9.006;2022-10-16T17:59:01;18.10;99.90
16273;DHT22;8244;50.044;9.006;2022-10-16T18:04:06;18.10;99.90
16273;DHT22;8244;50.044;9.006;2022-10-16T18:09:11;18.00;99.90
16273;DHT22;8244;50.044;9.006;2022-10-16T18:14:16;18.00;99.90
16273;DHT22;8244;50.044;9.006;2022-10-16T18:19:18;17.80;99.90
16273;DHT22;8244;50.044;9.006;2022-10-16T18:24:21;17.70;99.90
16273;DHT22;8244;50.044;9.006;2022-10-16T18:29:26;17.60;99.90
16273;DHT22;8244;50.044;9.006;2022-10-16T18:34:27;17.50;99.90
16273;DHT22;8244;50.044;9.006;2022-10-16T18:39:29;17.40;99.90
16273;DHT22;8244;50.044;9.006;2022-10-16T18:44:34;17.20;99.90
16273;DHT22;8244;50.044;9.006;2022-10-16T18:49:37;17.10;99.90
16273;DHT22;8244;50.044;9.006;2022-10-16T18:54:39;17.00;99.90
16273;DHT22;8244;50.044;9.006;2022-10-16T18:59:42;16.90;99.90
16273;DHT22;8244;50.044;9.006;2022-10-16T19:04:44;16.80;99.90
16273;DHT22;8244;50.044;9.006;2022-10-16T19:09:45;16.70;99.90
16273;DHT22;8244;50.044;9.006;2022-10-16T19:14:48;16.60;99.90
16273;DHT22;8244;50.044;9.006;2022-10-16T19:19:50;16.50;99.90
16273;DHT22;8244;50.044;9.006;2022-10-16T19:24:52;16.30;99.90
16273;DHT22;8244;50.044;9.006;2022-10-16T19:29:55;16.20;99.90
16273;DHT22;8244;50.044;9.006;2022-10-16T19:34:57;16.10;99.90
16273;DHT22;8244;50.044;9.006;2022-10-16T19:39:58;16.10;99.90
16273;DHT22;8244;50.044;9.006;2022-10-16T19:45:01;16.00;99.90
16273;DHT22;8244;50.044;9.006;2022-10-16T19:50:05;16.00;99.90
16273;DHT22;8244;50.044;9.006;2022-10-16T19:55:09;15.80;99.90
16273;DHT22;8244;50.044;9.006;2022-10-16T20:00:13;15.80;99.90
16273;DHT22;8244;50.044;9.006;2022-10-16T20:05:16;15.70;99.90
16273;DHT22;8244;50.044;9.006;2022-10-16T20:10:18;15.60;99.90
16273;DHT22;8244;50.044;9.006;2022-10-16T20:15:21;15.60;99.90
16273;DHT22;8244;50.044;9.006;2022-10-16T20:20:23;15.50;99.90
16273;DHT22;8244;50.044;9.006;2022-10-16T20:25:25;15.50;99.90
16273;DHT22;8244;50.044;9.006;2022-10-16T20:30:31;15.40;99.90
16273;DHT22;8244;50.044;9.006;2022-10-16T20:35:34;15.30;99.90
16273;DHT22;8244;50.044;9.006;2022-10-16T20:40:37;15.30;99.90
16273;DHT22;8244;50.044;9.006;2022-10-16T20:45:40;15.30;99.90
16273;DHT22;8244;50.044;9.006;2022-10-16T20:50:42;15.40;99.90
16273;DHT22;8244;50.044;9.006;2022-10-16T20:55:44;15.40;99.90
16273;DHT22;8244;50.044;9.006;2022-10-16T21:00:47;15.40;99.90
16273;DHT22;8244;50.044;9.006;2022-10-16T21:05:48;15.40;99.90
16273;DHT22;8244;50.044;9.006;2022-10-16T21:10:50;15.40;99.90
16273;DHT22;8244;50.044;9.006;2022-10-16T21:15:53;15.40;99.90
16273;DHT22;8244;50.044;9.006;2022-10-16T21:20:56;15.40;99.90
16273;DHT22;8244;50.044;9.006;2022-10-16T21:25:58;15.40;99.90
16273;DHT22;8244;50.044;9.006;2022-10-16T21:31:11;15.30;99.90
16273;DHT22;8244;50.044;9.006;2022-10-16T21:36:16;15.30;99.90
16273;DHT22;8244;50.044;9.006;2022-10-16T21:41:20;15.20;99.90
16273;DHT22;8244;50.044;9.006;2022-10-16T21:46:24;15.20;99.90
16273;DHT22;8244;50.044;9.006;2022-10-16T21:51:27;15.20;99.90
16273;DHT22;8244;50.044;9.006;2022-10-16T21:56:29;15.10;99.90
16273;DHT22;8244;50.044;9.006;2022-10-16T22:01:32;15.10;99.90
16273;DHT22;8244;50.044;9.006;2022-10-16T22:06:34;15.00;99.90
16273;DHT22;8244;50.044;9.006;2022-10-16T22:11:36;15.10;99.90
16273;DHT22;8244;50.044;9.006;2022-10-16T22:16:39;15.00;99.90
16273;DHT22;8244;50.044;9.006;2022-10-16T22:21:42;15.00;99.90
16273;DHT22;8244;50.044;9.006;2022-10-16T22:26:45;15.10;99.90
16273;DHT22;8244;50.044;9.006;2022-10-16T22:31:51;15.10;99.90
16273;DHT22;8244;50.044;9.006;2022-10-16T22:36:53;15.10;99.90
16273;DHT22;8244;50.044;9.006;2022-10-16T22:41:55;15.10;99.90
16273;DHT22;8244;50.044;9.006;2022-10-16T22:46:58;15.10;99.90
16273;DHT22;8244;50.044;9.006;2022-10-16T22:51:59;15.10;99.90
16273;DHT22;8244;50.044;9.006;2022-10-16T22:57:01;15.10;99.90
16273;DHT22;8244;50.044;9.006;2022-10-16T23:02:04;15.10;99.90
16273;DHT22;8244;50.044;9.006;2022-10-16T23:07:06;15.00;99.90
16273;DHT22;8244;50.044;9.006;2022-10-16T23:12:07;15.00;99.90
16273;DHT22;8244;50.044;9.006;2022-10-16T23:17:10;15.10;99.90
16273;DHT22;8244;50.044;9.006;2022-10-16T23:22:12;15.10;99.90
16273;DHT22;8244;50.044;9.006;2022-10-16T23:27:14;15.10;99.90
16273;DHT22;8244;50.044;9.006;2022-10-16T23:32:17;15.20;99.90
16273;DHT22;8244;50.044;9.006;2022-10-16T23:37:19;15.20;99.90
16273;DHT22;8244;50.044;9.006;2022-10-16T23:42:21;15.20;99.90
16273;DHT22;8244;50.044;9.006;2022-10-16T23:47:24;15.20;99.90
16273;DHT22;8244;50.044;9.006;2022-10-16T23:52:25;15.20;99.90
16273;DHT22;8244;50.044;9.006;2022-10-16T23:57:27;15.20;99.90
